Terminal Aerodrome Forecast
Issued by NWS

Home | Current Version | Previous Version | Graphics & Text | Print | Product List | Glossary On
Versions: 1 2 3 4 5 6 7 8 9 10 11 12 13 14 15 16 17 18 19 20
000
FTUS43 KLSX 221729
TAFSUS
TAF
KSUS 221729Z 2218/2318 36011KT 5SM BR VCSH OVC010
     FM222000 01011G18KT P6SM VCSH SCT012 OVC100
     FM222300 35012G18KT P6SM OVC035
     FM230500 33011G17KT P6SM BKN015=

USA.gov is the U.S. government's official web portal to all federal, state and local government web resources and services.